createdAt,value
2023-03-08T00:00:10.282Z,12.98
2023-03-08T00:03:00.765Z,15.15
2023-03-08T00:05:28.577Z,13.55
2023-03-08T00:07:55.943Z,15.93
2023-03-08T00:10:23.763Z,17.70
2023-03-08T00:12:50.952Z,20.35
2023-03-08T00:15:19.231Z,12.95
2023-03-08T00:17:46.367Z,14.07
2023-03-08T00:20:14.527Z,10.30
2023-03-08T00:22:42.766Z,12.40
2023-03-08T00:25:11.061Z,11.55
2023-03-08T00:27:38.692Z,13.38
2023-03-08T00:30:06.796Z,11.20
2023-03-08T00:32:34.391Z,16.25
2023-03-08T00:35:01.869Z,14.82
2023-03-08T00:37:29.098Z,13.32
2023-03-08T00:39:56.587Z,9.85
2023-03-08T00:42:24.368Z,12.00
2023-03-08T00:44:51.997Z,11.38
2023-03-08T00:47:19.722Z,14.32
2023-03-08T00:49:47.148Z,15.30
2023-03-08T00:52:14.844Z,16.60
2023-03-08T00:54:44.660Z,16.60
2023-03-08T00:57:11.809Z,18.33
2023-03-08T00:59:39.287Z,14.20
2023-03-08T01:02:06.865Z,17.00
2023-03-08T01:04:34.758Z,21.83
2023-03-08T01:07:01.974Z,16.10
2023-03-08T01:09:29.425Z,15.55
2023-03-08T01:11:56.668Z,15.52
2023-03-08T01:14:24.124Z,15.25
2023-03-08T01:16:51.379Z,21.77
2023-03-08T01:19:18.945Z,18.10
2023-03-08T01:21:46.220Z,26.77
2023-03-08T01:24:13.659Z,24.23
2023-03-08T01:26:40.841Z,23.15
2023-03-08T01:29:08.304Z,26.35
2023-03-08T01:31:35.457Z,24.27
2023-03-08T01:34:03.044Z,28.67
2023-03-08T01:36:30.284Z,24.63
2023-03-08T01:39:01.108Z,26.85
2023-03-08T01:41:31.112Z,28.42
2023-03-08T01:43:58.740Z,27.27
2023-03-08T01:46:36.712Z,28.55
2023-03-08T01:49:36.596Z,28.95
2023-03-08T01:52:14.283Z,26.80
2023-03-08T01:54:51.320Z,27.25
2023-03-08T01:57:23.728Z,35.97
2023-03-08T01:59:53.718Z,31.13
2023-03-08T02:02:28.519Z,27.20
2023-03-08T02:04:57.014Z,26.17
2023-03-08T02:07:26.702Z,21.95
2023-03-08T02:09:54.488Z,20.17
2023-03-08T02:12:22.611Z,18.42
2023-03-08T02:14:50.451Z,18.27
2023-03-08T02:17:18.016Z,20.45
2023-03-08T02:20:00.144Z,16.73
2023-03-08T02:22:27.564Z,21.50
2023-03-08T02:24:54.975Z,21.35
2023-03-08T02:27:26.036Z,16.88
2023-03-08T02:29:54.521Z,19.00
2023-03-08T02:32:23.477Z,13.93
2023-03-08T02:34:50.957Z,14.75
2023-03-08T02:37:18.136Z,17.10
2023-03-08T02:39:49.391Z,11.48
2023-03-08T02:42:16.553Z,11.48
2023-03-08T02:44:43.985Z,10.82
2023-03-08T02:47:11.372Z,12.00
2023-03-08T02:49:38.867Z,17.48
2023-03-08T02:52:06.111Z,9.40
2023-03-08T02:54:33.632Z,16.13
2023-03-08T02:57:01.691Z,10.65
2023-03-08T02:59:30.922Z,14.98
2023-03-08T03:01:59.705Z,16.48
2023-03-08T03:04:32.932Z,13.63
2023-03-08T03:07:01.129Z,12.93
2023-03-08T03:09:30.059Z,11.68
2023-03-08T03:11:57.773Z,14.25
2023-03-08T03:14:28.313Z,14.65
2023-03-08T03:16:56.538Z,16.88
2023-03-08T03:19:24.103Z,18.00
2023-03-08T03:21:51.338Z,14.63
2023-03-08T03:24:18.835Z,13.82
2023-03-08T03:26:52.040Z,13.00
2023-03-08T03:29:20.749Z,11.52
2023-03-08T03:31:52.349Z,10.27
2023-03-08T03:34:20.954Z,12.82
2023-03-08T03:36:49.704Z,11.27
2023-03-08T03:39:17.613Z,13.35
2023-03-08T03:41:45.370Z,14.68
2023-03-08T03:44:14.966Z,16.73
2023-03-08T03:46:44.623Z,13.75
2023-03-08T03:49:15.079Z,16.30
2023-03-08T03:51:44.747Z,12.05
2023-03-08T03:54:20.910Z,16.55
2023-03-08T03:56:49.141Z,20.75
2023-03-08T03:59:17.740Z,17.95
2023-03-08T04:01:45.285Z,18.77
2023-03-08T04:04:20.470Z,17.23
2023-03-08T04:06:48.606Z,17.73
2023-03-08T04:09:19.962Z,13.60
2023-03-08T04:11:54.662Z,18.25
2023-03-08T04:14:23.968Z,20.27
2023-03-08T04:16:53.154Z,15.93
2023-03-08T04:19:29.535Z,19.00
2023-03-08T04:21:58.863Z,18.90
2023-03-08T04:24:32.644Z,15.88
2023-03-08T04:27:04.096Z,19.53
2023-03-08T04:29:32.904Z,26.33
2023-03-08T04:32:00.648Z,22.75
2023-03-08T04:34:38.201Z,22.15
2023-03-08T04:37:06.002Z,19.90
2023-03-08T04:39:33.525Z,24.65
2023-03-08T04:42:00.748Z,19.23
2023-03-08T04:44:31.569Z,20.90
2023-03-08T04:46:59.512Z,18.58
2023-03-08T04:49:35.070Z,21.67
2023-03-08T04:52:03.831Z,21.25
2023-03-08T04:54:34.066Z,20.00
2023-03-08T04:57:16.184Z,18.88
2023-03-08T04:59:44.856Z,17.17
2023-03-08T05:02:13.352Z,20.65
2023-03-08T05:04:41.070Z,20.67
2023-03-08T05:07:08.262Z,24.10
2023-03-08T05:09:37.516Z,18.10
2023-03-08T05:12:05.190Z,18.58
2023-03-08T05:14:50.289Z,17.67
2023-03-08T05:17:17.602Z,18.83
2023-03-08T05:19:45.618Z,19.17
2023-03-08T05:22:16.157Z,21.55
2023-03-08T05:24:48.850Z,22.40
2023-03-08T05:27:17.483Z,21.35
2023-03-08T05:29:46.279Z,22.98
2023-03-08T05:32:14.369Z,18.98
2023-03-08T05:34:42.118Z,16.63
2023-03-08T05:37:13.824Z,15.30
2023-03-08T05:39:43.765Z,18.42
2023-03-08T05:42:16.489Z,14.52
2023-03-08T05:44:46.425Z,20.13
2023-03-08T05:47:16.668Z,18.95
2023-03-08T05:49:44.844Z,17.38
2023-03-08T05:52:12.901Z,20.00
2023-03-08T05:54:40.482Z,18.92
2023-03-08T05:57:12.932Z,25.90
2023-03-08T05:59:40.927Z,24.58
2023-03-08T06:02:10.269Z,21.10
2023-03-08T06:04:44.928Z,26.80
2023-03-08T06:07:14.068Z,28.25
2023-03-08T06:09:46.646Z,28.50
2023-03-08T06:12:16.339Z,25.55
2023-03-08T06:14:46.126Z,28.58
2023-03-08T06:17:15.146Z,32.38
2023-03-08T06:19:46.832Z,39.47
2023-03-08T06:22:16.989Z,28.20
2023-03-08T06:24:49.620Z,24.02
2023-03-08T06:27:20.775Z,28.17
2023-03-08T06:29:50.938Z,25.77
2023-03-08T06:32:18.998Z,25.67
2023-03-08T06:34:47.828Z,29.38
2023-03-08T06:37:15.170Z,27.48
2023-03-08T06:39:42.916Z,24.98
2023-03-08T06:42:10.147Z,34.83
2023-03-08T06:44:39.657Z,29.58
2023-03-08T06:47:07.312Z,27.02
2023-03-08T06:49:36.059Z,29.98
2023-03-08T06:52:03.709Z,31.42
2023-03-08T06:54:32.161Z,36.58
2023-03-08T06:56:59.440Z,30.35
2023-03-08T06:59:26.863Z,30.75
2023-03-08T07:01:53.999Z,31.45
2023-03-08T07:04:21.463Z,36.38
2023-03-08T07:06:48.646Z,27.52
2023-03-08T07:09:16.475Z,32.47
2023-03-08T07:11:43.688Z,32.38
2023-03-08T07:14:11.744Z,28.27
2023-03-08T07:16:39.103Z,28.20
2023-03-08T07:19:06.559Z,27.83
2023-03-08T07:21:33.813Z,25.15
2023-03-08T07:24:01.684Z,31.77
2023-03-08T07:26:28.906Z,25.73
2023-03-08T07:28:57.851Z,27.45
2023-03-08T07:31:26.701Z,31.95
2023-03-08T07:33:54.382Z,31.15
2023-03-08T07:36:21.699Z,26.83
2023-03-08T07:38:49.266Z,34.47
2023-03-08T07:41:16.523Z,33.67
2023-03-08T07:43:44.037Z,32.30
2023-03-08T07:46:21.421Z,29.10
2023-03-08T07:48:48.914Z,23.60
2023-03-08T07:51:16.250Z,30.33
2023-03-08T07:53:43.758Z,25.30
2023-03-08T07:56:11.799Z,28.38
2023-03-08T07:58:39.626Z,27.48
2023-03-08T08:01:09.956Z,27.92
2023-03-08T08:03:38.320Z,24.90
2023-03-08T08:06:07.262Z,30.35
2023-03-08T08:08:35.443Z,30.63
2023-03-08T08:11:02.780Z,27.90
2023-03-08T08:13:30.324Z,24.27
2023-03-08T08:15:59.651Z,30.25
2023-03-08T08:18:28.272Z,30.45
2023-03-08T08:21:02.754Z,24.25
2023-03-08T08:23:30.522Z,20.73
2023-03-08T08:25:58.272Z,21.50
2023-03-08T08:28:27.146Z,20.15
2023-03-08T08:31:12.351Z,22.63
2023-03-08T08:33:40.156Z,22.83
2023-03-08T08:36:10.935Z,23.77
2023-03-08T08:38:38.655Z,18.95
2023-03-08T08:41:07.956Z,22.52
2023-03-08T08:43:36.839Z,25.00
2023-03-08T08:46:05.102Z,26.95
2023-03-08T08:48:34.915Z,25.20
2023-03-08T08:51:02.125Z,23.95
2023-03-08T08:53:29.863Z,17.85
2023-03-08T08:55:57.688Z,22.05
2023-03-08T08:58:25.792Z,14.93
2023-03-08T09:00:52.981Z,16.65
2023-03-08T09:03:20.613Z,17.95
2023-03-08T09:05:47.832Z,18.63
2023-03-08T09:08:15.577Z,15.80
2023-03-08T09:10:42.852Z,16.88
2023-03-08T09:13:11.953Z,16.55
2023-03-08T09:15:39.262Z,22.40
2023-03-08T09:18:06.912Z,24.40
2023-03-08T09:20:34.153Z,25.45
2023-03-08T09:23:01.634Z,14.18
2023-03-08T09:25:28.871Z,18.83
2023-03-08T09:27:56.357Z,17.02
2023-03-08T09:30:23.645Z,14.32
2023-03-08T09:32:51.414Z,16.27
2023-03-08T09:35:18.658Z,20.58
2023-03-08T09:37:46.519Z,21.98
2023-03-08T09:40:26.018Z,18.38
2023-03-08T09:43:00.569Z,13.55
2023-03-08T09:45:29.198Z,14.82
2023-03-08T09:48:19.682Z,17.98
2023-03-08T09:50:51.677Z,19.90
2023-03-08T09:53:30.353Z,17.80
2023-03-08T09:56:05.213Z,16.27
2023-03-08T09:58:50.559Z,19.23
2023-03-08T10:01:35.725Z,22.70
2023-03-08T10:04:40.834Z,27.15
2023-03-08T10:07:18.368Z,28.30
2023-03-08T10:10:13.286Z,26.77
2023-03-08T10:12:49.271Z,21.95
2023-03-08T10:15:25.169Z,22.73
2023-03-08T10:18:05.836Z,17.23
2023-03-08T10:20:37.399Z,19.73
2023-03-08T10:23:15.187Z,17.55
2023-03-08T10:25:43.857Z,18.90
2023-03-08T10:28:21.138Z,14.65
2023-03-08T10:30:54.555Z,15.27
2023-03-08T10:33:24.619Z,15.10
2023-03-08T10:36:22.659Z,25.10
2023-03-08T10:39:22.275Z,15.98
2023-03-08T10:41:53.947Z,13.77
2023-03-08T10:44:40.862Z,11.67
2023-03-08T10:47:27.275Z,10.63
2023-03-08T10:50:09.342Z,12.45
2023-03-08T10:52:37.297Z,15.45
2023-03-08T10:55:07.523Z,12.05
2023-03-08T10:57:35.665Z,12.82
2023-03-08T11:00:25.933Z,14.80
2023-03-08T11:03:13.589Z,9.88
2023-03-08T11:05:50.677Z,16.13
2023-03-08T11:08:20.992Z,10.52
2023-03-08T11:10:48.635Z,15.82
2023-03-08T11:13:19.293Z,11.70
2023-03-08T11:16:29.776Z,21.10
2023-03-08T11:19:06.480Z,9.45
2023-03-08T11:21:41.881Z,7.15
2023-03-08T11:24:37.236Z,8.38
2023-03-08T11:27:19.129Z,10.15
2023-03-08T11:30:30.835Z,11.43
2023-03-08T11:33:19.628Z,8.90
2023-03-08T11:36:20.269Z,11.50
2023-03-08T11:38:57.181Z,15.50
2023-03-08T11:41:27.563Z,11.40
2023-03-08T11:43:57.612Z,11.95
2023-03-08T11:46:33.199Z,14.48
2023-03-08T11:49:36.792Z,13.13
2023-03-08T11:52:19.490Z,14.52
2023-03-08T11:55:05.311Z,13.52
2023-03-08T11:57:38.662Z,12.65
2023-03-08T12:00:18.044Z,8.48
2023-03-08T12:02:48.742Z,11.30
2023-03-08T12:05:35.092Z,11.40
2023-03-08T12:08:15.099Z,19.40
2023-03-08T12:11:01.870Z,183.57
2023-03-08T12:13:36.649Z,70.50
2023-03-08T12:16:11.047Z,310.17
2023-03-08T12:18:54.618Z,389.73
2023-03-08T12:21:38.389Z,13.23
2023-03-08T12:24:19.761Z,149.10
2023-03-08T12:27:03.555Z,25.23
2023-03-08T12:29:44.861Z,9.52
2023-03-08T12:32:14.398Z,15.98
2023-03-08T12:34:45.030Z,10.77
2023-03-08T12:37:21.704Z,16.42
2023-03-08T12:40:05.842Z,24.75
2023-03-08T12:42:40.936Z,19.40
2023-03-08T12:45:20.806Z,21.83
2023-03-08T12:48:00.861Z,15.35
2023-03-08T12:50:28.978Z,111.85
2023-03-08T12:52:56.628Z,114.00
2023-03-08T12:55:32.992Z,49.00
2023-03-08T12:58:04.111Z,184.55
2023-03-08T13:00:37.326Z,86.03
2023-03-08T13:03:13.638Z,48.63
2023-03-08T13:05:45.579Z,76.30
2023-03-08T13:08:12.903Z,94.97
2023-03-08T13:10:51.957Z,45.92
2023-03-08T13:13:37.452Z,24.67
2023-03-08T13:16:32.132Z,43.83
2023-03-08T13:19:26.850Z,20.08
2023-03-08T13:22:12.830Z,14.45
2023-03-08T13:25:08.555Z,18.90
2023-03-08T13:27:49.528Z,17.17
2023-03-08T13:30:47.175Z,14.68
2023-03-08T13:33:21.506Z,10.73
2023-03-08T13:36:01.311Z,14.45
2023-03-08T13:38:31.901Z,15.27
2023-03-08T13:41:00.112Z,20.35
2023-03-08T13:43:33.162Z,16.27
2023-03-08T13:46:10.599Z,19.52
2023-03-08T13:48:38.250Z,21.30
2023-03-08T13:51:05.957Z,17.92
2023-03-08T13:53:36.397Z,16.40
2023-03-08T13:56:06.328Z,18.17
2023-03-08T13:58:41.358Z,14.48
2023-03-08T14:01:17.914Z,13.15
2023-03-08T14:03:46.893Z,18.38
2023-03-08T14:06:30.396Z,19.17
2023-03-08T14:09:03.679Z,18.40
2023-03-08T14:11:39.832Z,18.83
2023-03-08T14:14:15.836Z,162.32
2023-03-08T14:16:43.666Z,157.00
2023-03-08T14:19:24.002Z,79.93
2023-03-08T14:22:16.830Z,132.90
2023-03-08T14:25:00.570Z,50.22
2023-03-08T14:27:40.997Z,16.65
2023-03-08T14:30:14.505Z,18.30
2023-03-08T14:32:54.003Z,19.40
2023-03-08T14:35:30.947Z,14.20
2023-03-08T14:37:58.920Z,19.05
2023-03-08T14:40:35.717Z,19.55
2023-03-08T14:43:14.647Z,16.55
2023-03-08T14:45:53.989Z,16.67
2023-03-08T14:48:25.599Z,22.20
2023-03-08T14:51:00.121Z,17.42
2023-03-08T14:53:34.928Z,18.55
2023-03-08T14:56:15.903Z,18.95
2023-03-08T14:58:48.916Z,17.27
2023-03-08T15:01:34.241Z,17.45
2023-03-08T15:04:02.256Z,15.57
2023-03-08T15:06:32.573Z,18.83
2023-03-08T15:09:01.157Z,15.40
2023-03-08T15:11:31.630Z,19.52
2023-03-08T15:13:59.531Z,20.30
2023-03-08T15:16:27.399Z,22.15
2023-03-08T15:18:54.997Z,19.67
2023-03-08T15:21:25.673Z,31.52
2023-03-08T15:23:53.412Z,22.95
2023-03-08T15:26:24.738Z,26.60
2023-03-08T15:28:51.889Z,27.33
2023-03-08T15:31:19.701Z,33.65
2023-03-08T15:33:47.092Z,26.38
2023-03-08T15:36:17.208Z,27.90
2023-03-08T15:38:45.393Z,32.42
2023-03-08T15:41:14.567Z,79.47
2023-03-08T15:43:42.671Z,35.95
2023-03-08T15:46:15.037Z,26.58
2023-03-08T15:48:45.521Z,35.38
2023-03-08T15:51:19.046Z,86.95
2023-03-08T15:53:47.145Z,73.78
2023-03-08T15:56:15.357Z,42.03
2023-03-08T15:58:42.769Z,26.67
2023-03-08T16:01:11.952Z,26.58
2023-03-08T16:03:39.723Z,29.30
2023-03-08T16:06:11.503Z,28.73
2023-03-08T16:08:39.756Z,26.95
2023-03-08T16:11:09.033Z,31.90
2023-03-08T16:13:36.388Z,28.75
2023-03-08T16:16:06.904Z,33.38
2023-03-08T16:18:36.058Z,53.67
2023-03-08T16:21:08.932Z,44.03
2023-03-08T16:23:37.631Z,75.35
2023-03-08T16:26:16.623Z,67.60
2023-03-08T16:28:46.291Z,54.30
2023-03-08T16:31:15.005Z,40.25
2023-03-08T16:33:42.288Z,27.23
2023-03-08T16:36:11.588Z,47.90
2023-03-08T16:38:38.880Z,53.33
2023-03-08T16:41:14.487Z,59.45
2023-03-08T16:43:48.022Z,118.25
2023-03-08T16:46:18.467Z,196.02
2023-03-08T16:48:49.157Z,113.95
2023-03-08T16:51:19.406Z,80.88
2023-03-08T16:53:47.128Z,63.78
2023-03-08T16:56:25.865Z,53.53
2023-03-08T16:58:55.554Z,54.22
2023-03-08T17:01:23.951Z,53.20
2023-03-08T17:03:51.765Z,49.72
2023-03-08T17:06:22.466Z,58.97
2023-03-08T17:08:49.725Z,57.78
2023-03-08T17:11:19.499Z,62.25
2023-03-08T17:13:51.700Z,69.78
2023-03-08T17:18:48.576Z,66.40
2023-03-08T17:21:17.206Z,59.10
2023-03-08T17:23:44.892Z,65.35
2023-03-08T17:26:13.814Z,65.90
2023-03-08T17:28:41.827Z,65.68
2023-03-08T17:31:16.181Z,66.18
2023-03-08T17:33:44.566Z,60.58
2023-03-08T17:36:14.621Z,53.53
2023-03-08T17:38:42.600Z,59.40
2023-03-08T17:41:13.909Z,58.97
2023-03-08T17:43:41.593Z,75.78
2023-03-08T17:46:14.030Z,74.35
2023-03-08T17:48:41.362Z,55.28
2023-03-08T17:51:12.227Z,62.40
2023-03-08T17:53:40.374Z,56.78
2023-03-08T17:56:10.322Z,49.40
2023-03-08T17:58:38.111Z,52.35
2023-03-08T18:01:18.115Z,52.22
2023-03-08T18:03:46.049Z,49.00
2023-03-08T18:06:25.966Z,53.95
2023-03-08T18:08:53.309Z,47.72
2023-03-08T18:11:21.427Z,47.42
2023-03-08T18:13:51.281Z,54.40
2023-03-08T18:16:20.153Z,48.88
2023-03-08T18:18:49.825Z,58.22
2023-03-08T18:21:18.970Z,48.88
2023-03-08T18:23:46.927Z,51.17
2023-03-08T18:26:18.820Z,52.67
2023-03-08T18:28:46.769Z,51.20
2023-03-08T18:31:20.451Z,55.55
2023-03-08T18:33:48.095Z,51.67
2023-03-08T18:36:15.792Z,65.28
2023-03-08T18:38:43.259Z,64.90
2023-03-08T18:41:15.351Z,54.17
2023-03-08T18:43:43.151Z,55.15
2023-03-08T18:46:12.866Z,58.90
2023-03-08T18:48:41.590Z,60.58
2023-03-08T18:51:09.999Z,55.10
2023-03-08T18:53:37.880Z,64.38
2023-03-08T18:56:05.969Z,58.05
2023-03-08T18:58:34.037Z,60.10
2023-03-08T19:01:03.005Z,58.60
2023-03-08T19:03:30.844Z,54.42
2023-03-08T19:06:02.943Z,62.40
2023-03-08T19:08:30.549Z,53.97
2023-03-08T19:10:59.229Z,51.20
2023-03-08T19:13:26.716Z,55.08
2023-03-08T19:15:54.377Z,54.78
2023-03-08T19:18:23.597Z,118.68
2023-03-08T19:20:51.214Z,97.65
2023-03-08T19:23:18.565Z,63.03
2023-03-08T19:26:04.733Z,64.15
2023-03-08T19:28:32.129Z,56.55
2023-03-08T19:30:59.864Z,46.05
2023-03-08T19:33:31.766Z,43.67
2023-03-08T19:35:59.691Z,46.47
2023-03-08T19:38:27.040Z,46.00
2023-03-08T19:40:55.147Z,46.05
2023-03-08T19:43:22.340Z,47.00
2023-03-08T19:45:50.103Z,43.38
2023-03-08T19:48:17.430Z,39.47
2023-03-08T19:50:46.384Z,43.92
2023-03-08T19:53:13.723Z,48.15
2023-03-08T19:55:55.464Z,78.50
2023-03-08T19:58:23.557Z,104.00
2023-03-08T20:00:51.075Z,132.90
2023-03-08T20:03:19.176Z,343.77
2023-03-08T20:05:47.641Z,145.98
2023-03-08T20:08:15.299Z,171.68
2023-03-08T20:10:42.815Z,111.53
2023-03-08T20:13:09.987Z,94.20
2023-03-08T20:15:37.467Z,96.22
2023-03-08T20:18:04.609Z,61.15
2023-03-08T20:20:32.076Z,43.42
2023-03-08T20:22:59.278Z,48.38
2023-03-08T20:25:26.904Z,44.00
2023-03-08T20:27:54.206Z,41.45
2023-03-08T20:30:22.231Z,40.05
2023-03-08T20:32:53.190Z,48.42
2023-03-08T20:35:22.740Z,68.82
2023-03-08T20:37:51.029Z,33.17
2023-03-08T20:40:20.793Z,32.75
2023-03-08T20:42:48.184Z,34.50
2023-03-08T20:45:17.266Z,37.13
2023-03-08T20:47:44.474Z,33.80
2023-03-08T20:50:12.224Z,32.13
2023-03-08T20:52:39.480Z,28.92
2023-03-08T20:55:07.613Z,33.63
2023-03-08T20:57:34.804Z,36.97
2023-03-08T21:00:02.503Z,41.90
2023-03-08T21:02:29.672Z,28.65
2023-03-08T21:04:58.157Z,39.72
2023-03-08T21:07:25.355Z,31.42
2023-03-08T21:09:52.932Z,25.70
2023-03-08T21:12:20.192Z,30.88
2023-03-08T21:14:50.927Z,28.35
2023-03-08T21:17:22.049Z,25.90
2023-03-08T21:19:49.564Z,29.87
2023-03-08T21:22:16.790Z,28.15
2023-03-08T21:24:44.292Z,26.83
2023-03-08T21:27:11.650Z,24.33
2023-03-08T21:29:39.105Z,20.90
2023-03-08T21:32:06.663Z,22.90
2023-03-08T21:34:34.172Z,24.92
2023-03-08T21:37:01.425Z,20.95
2023-03-08T21:39:29.005Z,19.70
2023-03-08T21:41:58.438Z,19.88
2023-03-08T21:44:25.992Z,19.90
2023-03-08T21:46:55.354Z,15.85
2023-03-08T21:49:25.782Z,16.35
2023-03-08T21:51:54.512Z,19.98
2023-03-08T21:54:23.874Z,21.67
2023-03-08T21:56:51.093Z,25.95
2023-03-08T21:59:18.720Z,29.33
2023-03-08T22:01:48.405Z,42.88
2023-03-08T22:04:17.110Z,46.20
2023-03-08T22:06:46.397Z,26.77
2023-03-08T22:09:13.918Z,30.02
2023-03-08T22:11:41.129Z,38.42
2023-03-08T22:14:08.609Z,42.28
2023-03-08T22:16:41.872Z,29.08
2023-03-08T22:19:11.119Z,36.53
2023-03-08T22:21:38.275Z,36.80
2023-03-08T22:24:06.161Z,34.35
2023-03-08T22:26:33.407Z,34.33
2023-03-08T22:29:00.973Z,31.45
2023-03-08T22:31:29.956Z,40.13
2023-03-08T22:33:58.121Z,41.63
2023-03-08T22:36:25.483Z,36.78
2023-03-08T22:38:53.621Z,42.20
2023-03-08T22:41:23.576Z,37.05
2023-03-08T22:43:51.724Z,38.60
2023-03-08T22:46:24.120Z,28.35
2023-03-08T22:48:52.555Z,30.38
2023-03-08T22:51:21.525Z,29.75
2023-03-08T22:53:49.092Z,26.85
2023-03-08T22:56:24.936Z,24.20
2023-03-08T22:58:52.985Z,23.50
2023-03-08T23:01:22.781Z,26.40
2023-03-08T23:03:53.682Z,21.80
2023-03-08T23:06:21.017Z,15.85
2023-03-08T23:08:48.580Z,17.55
2023-03-08T23:11:15.885Z,20.35
2023-03-08T23:13:43.536Z,21.27
2023-03-08T23:16:16.468Z,33.15
2023-03-08T23:18:44.695Z,20.85
2023-03-08T23:21:15.046Z,26.70
2023-03-08T23:23:42.547Z,15.13
2023-03-08T23:26:13.759Z,24.35
2023-03-08T23:28:41.605Z,24.48
2023-03-08T23:31:09.993Z,16.85
2023-03-08T23:33:37.606Z,24.33
2023-03-08T23:36:05.268Z,20.27
2023-03-08T23:38:32.932Z,36.15
2023-03-08T23:41:07.310Z,46.60
2023-03-08T23:43:36.029Z,77.13
2023-03-08T23:46:12.873Z,52.90
2023-03-08T23:48:40.439Z,23.38
2023-03-08T23:51:12.292Z,19.73
2023-03-08T23:53:40.205Z,25.60
2023-03-08T23:56:16.048Z,21.02
2023-03-08T23:58:43.518Z,23.15
